createdAt,value
2022-11-29T00:01:37.988Z,45.33
2022-11-29T00:04:05.772Z,39.77
2022-11-29T00:06:35.063Z,41.63
2022-11-29T00:09:06.636Z,40.90
2022-11-29T00:11:56.480Z,43.40
2022-11-29T00:14:24.889Z,40.47
2022-11-29T00:16:54.382Z,38.77
2022-11-29T00:19:22.779Z,45.13
2022-11-29T00:21:50.971Z,42.73
2022-11-29T00:24:19.727Z,42.33
2022-11-29T00:26:48.134Z,46.07
2022-11-29T00:29:15.771Z,43.37
2022-11-29T00:31:43.511Z,38.17
2022-11-29T00:34:13.108Z,41.80
2022-11-29T00:36:41.533Z,41.00
2022-11-29T00:39:12.205Z,43.10
2022-11-29T00:41:40.687Z,42.00
2022-11-29T00:44:08.820Z,42.17
2022-11-29T00:46:37.824Z,43.50
2022-11-29T00:49:05.671Z,37.47
2022-11-29T00:51:33.430Z,38.87
2022-11-29T00:54:00.656Z,41.47
2022-11-29T00:56:28.145Z,35.83
2022-11-29T00:58:55.400Z,34.10
2022-11-29T01:01:23.807Z,34.57
2022-11-29T01:03:51.106Z,38.03
2022-11-29T01:06:19.042Z,37.43
2022-11-29T01:08:48.371Z,39.37
2022-11-29T01:11:26.746Z,35.00
2022-11-29T01:14:00.855Z,36.57
2022-11-29T01:16:30.840Z,37.50
2022-11-29T01:18:58.137Z,33.90
2022-11-29T01:21:25.437Z,31.27
2022-11-29T01:23:54.106Z,35.23
2022-11-29T01:26:29.183Z,31.50
2022-11-29T01:28:59.292Z,30.80
2022-11-29T01:31:37.946Z,32.67
2022-11-29T01:34:07.182Z,31.83
2022-11-29T01:36:35.846Z,34.20
2022-11-29T01:39:05.123Z,34.83
2022-11-29T01:41:36.200Z,35.70
2022-11-29T01:44:07.574Z,34.73
2022-11-29T01:46:38.826Z,37.80
2022-11-29T01:49:10.570Z,40.80
2022-11-29T01:51:41.606Z,39.63
2022-11-29T01:54:10.906Z,33.80
2022-11-29T01:56:39.176Z,34.87
2022-11-29T01:59:11.580Z,40.73
2022-11-29T02:01:39.000Z,39.47
2022-11-29T02:04:07.341Z,40.20
2022-11-29T02:06:36.486Z,40.33
2022-11-29T02:09:04.675Z,38.53
2022-11-29T02:11:50.282Z,43.23
2022-11-29T02:14:34.555Z,42.97
2022-11-29T02:17:39.326Z,42.37
2022-11-29T02:20:21.676Z,42.23
2022-11-29T02:23:03.352Z,47.10
2022-11-29T02:25:52.312Z,43.23
2022-11-29T02:28:41.196Z,40.37
2022-11-29T02:31:42.576Z,39.27
2022-11-29T02:34:42.003Z,39.80
2022-11-29T02:37:25.483Z,46.10
2022-11-29T02:40:04.596Z,35.93
2022-11-29T02:42:55.741Z,37.67
2022-11-29T02:45:43.419Z,35.67
2022-11-29T02:48:13.700Z,38.57
2022-11-29T02:51:04.797Z,37.17
2022-11-29T02:54:13.991Z,39.80
2022-11-29T02:56:58.385Z,40.53
2022-11-29T02:59:50.876Z,41.83
2022-11-29T03:03:00.046Z,42.20
2022-11-29T03:06:07.196Z,43.03
2022-11-29T03:08:57.785Z,48.10
2022-11-29T03:11:56.040Z,45.53
2022-11-29T03:14:33.535Z,45.57
2022-11-29T03:17:40.953Z,46.43
2022-11-29T03:20:11.536Z,49.33
2022-11-29T03:22:58.656Z,46.17
2022-11-29T03:25:44.171Z,47.73
2022-11-29T03:28:29.286Z,43.63
2022-11-29T03:31:21.193Z,42.07
2022-11-29T03:34:39.146Z,47.90
2022-11-29T03:37:41.951Z,40.93
2022-11-29T03:40:20.350Z,41.53
2022-11-29T03:43:07.052Z,50.07
2022-11-29T03:45:42.706Z,44.37
2022-11-29T03:48:24.842Z,49.83
2022-11-29T03:51:19.277Z,47.53
2022-11-29T03:53:49.467Z,41.57
2022-11-29T03:56:40.486Z,47.67
2022-11-29T03:59:20.035Z,48.10
2022-11-29T04:01:47.443Z,46.93
2022-11-29T04:04:33.696Z,44.97
2022-11-29T04:07:00.967Z,47.00
2022-11-29T04:09:51.436Z,42.33
2022-11-29T04:12:32.581Z,46.60
2022-11-29T04:15:37.566Z,40.60
2022-11-29T04:18:25.201Z,45.83
2022-11-29T04:21:01.805Z,42.40
2022-11-29T04:23:57.391Z,46.67
2022-11-29T04:26:59.111Z,53.10
2022-11-29T04:29:29.450Z,47.07
2022-11-29T04:32:40.820Z,48.03
2022-11-29T04:35:33.960Z,45.30
2022-11-29T04:38:06.950Z,47.60
2022-11-29T04:40:48.455Z,43.20
2022-11-29T04:43:54.277Z,45.17
2022-11-29T04:46:43.298Z,50.57
2022-11-29T04:49:17.982Z,48.67
2022-11-29T04:52:25.275Z,47.80
2022-11-29T04:55:31.211Z,49.90
2022-11-29T04:58:16.931Z,49.50
2022-11-29T05:00:57.485Z,47.80
2022-11-29T05:04:00.382Z,51.40
2022-11-29T05:06:39.072Z,51.37
2022-11-29T05:09:09.250Z,57.03
2022-11-29T05:11:49.910Z,74.80
2022-11-29T05:14:38.070Z,59.23
2022-11-29T05:17:23.870Z,62.00
2022-11-29T05:20:23.217Z,52.90
2022-11-29T05:23:19.262Z,53.83
2022-11-29T05:26:12.801Z,55.00
2022-11-29T05:29:16.690Z,64.97
2022-11-29T05:32:03.301Z,58.60
2022-11-29T05:34:52.390Z,62.30
2022-11-29T05:37:50.990Z,59.10
2022-11-29T05:40:59.896Z,51.97
2022-11-29T05:44:05.390Z,55.57
2022-11-29T05:46:51.140Z,51.97
2022-11-29T05:49:40.128Z,54.10
2022-11-29T05:52:27.257Z,56.93
2022-11-29T05:55:29.101Z,54.17
2022-11-29T05:58:08.827Z,50.93
2022-11-29T06:00:59.837Z,60.27
2022-11-29T06:04:21.523Z,59.47
2022-11-29T06:07:12.237Z,54.70
2022-11-29T06:09:49.462Z,60.90
2022-11-29T06:12:21.613Z,54.30
2022-11-29T06:14:55.672Z,52.27
2022-11-29T06:17:39.578Z,52.40
2022-11-29T06:20:30.917Z,74.33
2022-11-29T06:23:19.728Z,60.70
2022-11-29T06:26:24.335Z,48.63
2022-11-29T06:29:14.217Z,50.63
2022-11-29T06:31:46.144Z,50.30
2022-11-29T06:34:20.692Z,42.37
2022-11-29T06:37:02.637Z,49.07
2022-11-29T06:39:30.031Z,50.03
2022-11-29T06:41:57.197Z,49.73
2022-11-29T06:44:24.757Z,46.07
2022-11-29T06:47:09.381Z,51.17
2022-11-29T06:49:52.194Z,49.57
2022-11-29T06:52:54.767Z,50.83
2022-11-29T06:55:33.589Z,48.80
2022-11-29T06:58:42.062Z,51.23
2022-11-29T07:01:35.448Z,47.83
2022-11-29T07:04:21.107Z,50.43
2022-11-29T07:06:48.556Z,51.50
2022-11-29T07:09:22.007Z,45.07
2022-11-29T07:11:49.554Z,46.63
2022-11-29T07:14:16.897Z,46.43
2022-11-29T07:17:00.201Z,45.53
2022-11-29T07:19:48.633Z,47.13
2022-11-29T07:22:34.292Z,42.67
2022-11-29T07:25:22.562Z,43.83
2022-11-29T07:28:15.916Z,44.17
2022-11-29T07:30:51.922Z,44.23
2022-11-29T07:33:35.992Z,44.77
2022-11-29T07:36:22.525Z,42.23
2022-11-29T07:39:08.263Z,39.27
2022-11-29T07:41:53.464Z,41.13
2022-11-29T07:44:28.933Z,40.30
2022-11-29T07:46:56.306Z,43.30
2022-11-29T07:49:23.513Z,37.27
2022-11-29T07:51:50.758Z,43.30
2022-11-29T07:54:20.179Z,38.17
2022-11-29T07:56:47.393Z,42.23
2022-11-29T07:59:15.592Z,42.63
2022-11-29T08:01:43.119Z,41.27
2022-11-29T08:04:10.527Z,37.43
2022-11-29T08:06:37.848Z,33.93
2022-11-29T08:09:07.641Z,47.40
2022-11-29T08:11:34.979Z,34.33
2022-11-29T08:14:03.744Z,34.23
2022-11-29T08:16:31.892Z,36.03
2022-11-29T08:18:59.141Z,35.47
2022-11-29T08:21:26.799Z,33.87
2022-11-29T08:23:55.193Z,34.07
2022-11-29T08:26:26.899Z,36.17
2022-11-29T08:28:58.346Z,35.17
2022-11-29T08:31:25.493Z,33.27
2022-11-29T08:33:52.779Z,36.17
2022-11-29T08:36:21.769Z,37.43
2022-11-29T08:38:49.317Z,35.47
2022-11-29T08:41:17.742Z,34.90
2022-11-29T08:43:45.280Z,35.87
2022-11-29T08:46:18.228Z,36.83
2022-11-29T08:48:48.211Z,36.37
2022-11-29T08:51:15.908Z,35.60
2022-11-29T08:53:46.247Z,33.93
2022-11-29T08:59:07.875Z,90.67
2022-11-29T09:01:36.079Z,32.83
2022-11-29T09:04:03.651Z,37.33
2022-11-29T09:06:33.431Z,42.93
2022-11-29T09:09:01.298Z,35.83
2022-11-29T09:11:30.134Z,32.00
2022-11-29T09:14:00.218Z,30.60
2022-11-29T09:16:30.850Z,32.43
2022-11-29T09:18:58.213Z,37.17
2022-11-29T09:21:26.862Z,45.73
2022-11-29T09:23:58.941Z,44.67
2022-11-29T09:26:30.192Z,39.33
2022-11-29T09:29:01.335Z,48.13
2022-11-29T09:31:29.962Z,37.77
2022-11-29T09:33:57.488Z,38.27
2022-11-29T09:36:28.941Z,39.30
2022-11-29T09:38:57.677Z,44.87
2022-11-29T09:41:36.826Z,45.03
2022-11-29T09:44:20.138Z,41.53
2022-11-29T09:46:58.625Z,34.80
2022-11-29T09:49:26.121Z,49.70
2022-11-29T09:52:02.308Z,43.33
2022-11-29T09:54:55.742Z,30.87
2022-11-29T09:57:25.180Z,38.17
2022-11-29T09:59:57.671Z,29.83
2022-11-29T10:02:47.810Z,31.80
2022-11-29T10:05:24.096Z,34.27
2022-11-29T10:08:08.706Z,44.53
2022-11-29T10:10:37.808Z,32.67
2022-11-29T10:13:16.091Z,28.07
2022-11-29T10:15:46.318Z,29.63
2022-11-29T10:18:32.464Z,30.03
2022-11-29T10:21:11.003Z,30.73
2022-11-29T10:23:45.143Z,29.63
2022-11-29T10:26:13.314Z,31.07
2022-11-29T10:28:45.084Z,26.13
2022-11-29T10:31:31.995Z,29.20
2022-11-29T10:34:02.787Z,29.27
2022-11-29T10:36:55.014Z,28.03
2022-11-29T10:39:30.030Z,27.47
2022-11-29T10:42:03.045Z,27.33
2022-11-29T10:44:33.349Z,30.67
2022-11-29T10:47:10.425Z,26.47
2022-11-29T10:49:40.514Z,27.60
2022-11-29T10:52:19.995Z,27.40
2022-11-29T10:54:51.129Z,26.47
2022-11-29T10:57:22.390Z,26.30
2022-11-29T11:00:04.657Z,27.93
2022-11-29T11:02:32.997Z,30.90
2022-11-29T11:05:01.730Z,27.03
2022-11-29T11:07:35.868Z,27.13
2022-11-29T11:10:22.730Z,36.00
2022-11-29T11:13:19.359Z,28.37
2022-11-29T11:15:46.747Z,40.67
2022-11-29T11:18:26.760Z,69.37
2022-11-29T11:20:57.449Z,35.33
2022-11-29T11:23:30.794Z,30.83
2022-11-29T11:26:10.399Z,24.60
2022-11-29T11:28:44.356Z,26.73
2022-11-29T11:31:12.941Z,29.20
2022-11-29T11:33:45.179Z,26.30
2022-11-29T11:36:21.455Z,27.47
2022-11-29T11:38:55.500Z,23.87
2022-11-29T11:41:48.448Z,24.47
2022-11-29T11:44:47.003Z,24.13
2022-11-29T11:47:22.201Z,24.47
2022-11-29T11:49:56.240Z,22.77
2022-11-29T11:52:42.018Z,24.97
2022-11-29T11:55:36.917Z,24.57
2022-11-29T11:58:13.320Z,22.13
2022-11-29T12:03:47.780Z,24.37
2022-11-29T12:06:30.556Z,23.13
2022-11-29T12:09:19.515Z,24.33
2022-11-29T12:12:20.682Z,24.97
2022-11-29T12:15:19.817Z,25.13
2022-11-29T12:17:58.566Z,26.43
2022-11-29T12:20:52.606Z,25.77
2022-11-29T12:23:30.119Z,24.27
2022-11-29T12:26:06.043Z,23.57
2022-11-29T12:28:38.320Z,22.47
2022-11-29T12:31:24.109Z,24.17
2022-11-29T12:34:22.410Z,28.77
2022-11-29T12:37:14.027Z,28.23
2022-11-29T12:39:52.614Z,27.40
2022-11-29T12:42:36.309Z,28.20
2022-11-29T12:45:18.763Z,31.77
2022-11-29T12:48:03.763Z,25.47
2022-11-29T12:50:59.255Z,27.43
2022-11-29T12:53:51.578Z,24.90
2022-11-29T12:56:18.746Z,27.30
2022-11-29T12:58:52.030Z,27.03
2022-11-29T13:01:48.328Z,42.43
2022-11-29T13:04:38.088Z,29.70
2022-11-29T13:07:26.463Z,28.33
2022-11-29T13:10:02.745Z,27.90
2022-11-29T13:12:42.860Z,26.60
2022-11-29T13:15:20.546Z,28.27
2022-11-29T13:17:56.589Z,25.90
2022-11-29T13:20:28.674Z,27.80
2022-11-29T13:23:17.460Z,25.47
2022-11-29T13:25:54.309Z,27.37
2022-11-29T13:28:34.120Z,28.57
2022-11-29T13:31:23.285Z,27.57
2022-11-29T13:34:15.614Z,38.47
2022-11-29T13:37:26.679Z,30.97
2022-11-29T13:40:25.407Z,30.60
2022-11-29T13:43:18.975Z,32.00
2022-11-29T13:46:04.835Z,30.40
2022-11-29T13:48:48.411Z,29.57
2022-11-29T13:51:38.868Z,26.93
2022-11-29T13:54:25.758Z,30.13
2022-11-29T13:57:14.258Z,32.73
2022-11-29T13:59:49.478Z,33.07
2022-11-29T14:02:29.964Z,34.70
2022-11-29T14:04:57.537Z,35.13
2022-11-29T14:07:24.875Z,33.73
2022-11-29T14:10:28.554Z,29.17
2022-11-29T14:12:59.972Z,33.43
2022-11-29T14:15:31.369Z,33.17
2022-11-29T14:18:08.987Z,30.93
2022-11-29T14:20:39.286Z,32.47
2022-11-29T14:23:09.303Z,33.90
2022-11-29T14:25:55.231Z,34.17
2022-11-29T14:28:22.373Z,33.57
2022-11-29T14:30:50.911Z,30.07
2022-11-29T14:33:54.432Z,34.17
2022-11-29T14:36:38.641Z,32.87
2022-11-29T14:39:24.222Z,34.03
2022-11-29T14:41:51.581Z,33.00
2022-11-29T14:44:21.142Z,59.00
2022-11-29T14:46:59.389Z,69.67
2022-11-29T14:49:28.530Z,42.90
2022-11-29T14:52:38.871Z,34.93
2022-11-29T14:55:08.307Z,38.70
2022-11-29T14:57:48.424Z,39.73
2022-11-29T15:00:18.085Z,36.77
2022-11-29T15:02:53.372Z,40.50
2022-11-29T15:05:20.687Z,40.83
2022-11-29T15:08:01.567Z,42.80
2022-11-29T15:10:33.447Z,40.73
2022-11-29T15:13:01.973Z,39.50
2022-11-29T15:16:08.702Z,39.83
2022-11-29T15:18:59.586Z,36.17
2022-11-29T15:22:03.855Z,38.40
2022-11-29T15:24:30.995Z,35.70
2022-11-29T15:27:01.672Z,41.47
2022-11-29T15:29:30.848Z,43.17
2022-11-29T15:32:01.175Z,38.90
2022-11-29T15:34:48.139Z,35.90
2022-11-29T15:37:44.736Z,33.40
2022-11-29T15:40:19.819Z,37.80
2022-11-29T15:42:55.279Z,36.30
2022-11-29T15:45:46.718Z,38.63
2022-11-29T15:48:23.487Z,39.30
2022-11-29T15:51:15.603Z,51.83
2022-11-29T15:53:49.830Z,69.40
2022-11-29T15:56:36.221Z,53.23
2022-11-29T15:59:23.543Z,44.27
2022-11-29T16:01:54.984Z,39.47
2022-11-29T16:04:24.938Z,40.60
2022-11-29T16:06:53.672Z,40.70
2022-11-29T16:09:41.353Z,39.53
2022-11-29T16:12:17.550Z,40.60
2022-11-29T16:14:59.370Z,37.27
2022-11-29T16:17:33.887Z,37.43
2022-11-29T16:20:17.040Z,48.67
2022-11-29T16:22:44.401Z,58.43
2022-11-29T16:25:19.902Z,59.10
2022-11-29T16:27:47.911Z,63.67
2022-11-29T16:30:24.239Z,62.80
2022-11-29T16:32:59.477Z,59.00
2022-11-29T16:35:29.650Z,52.47
2022-11-29T16:37:57.515Z,50.73
2022-11-29T16:40:34.942Z,53.07
2022-11-29T16:43:02.110Z,62.07
2022-11-29T16:46:09.525Z,60.90
2022-11-29T16:48:40.681Z,56.57
2022-11-29T16:51:11.057Z,53.33
2022-11-29T16:53:47.867Z,47.40
2022-11-29T16:56:28.130Z,52.03
2022-11-29T16:59:25.522Z,50.50
2022-11-29T17:01:50.827Z,50.10
2022-11-29T17:04:23.362Z,46.53
2022-11-29T17:06:51.831Z,46.93
2022-11-29T17:09:27.772Z,42.37
2022-11-29T17:11:56.123Z,46.07
2022-11-29T17:14:23.388Z,49.07
2022-11-29T17:16:52.128Z,48.67
2022-11-29T17:19:23.203Z,50.40
2022-11-29T17:21:52.109Z,49.73
2022-11-29T17:24:21.276Z,49.70
2022-11-29T17:26:49.029Z,50.77
2022-11-29T17:29:17.934Z,48.90
2022-11-29T17:31:47.445Z,50.80
2022-11-29T17:34:14.815Z,51.53
2022-11-29T17:36:42.105Z,52.83
2022-11-29T17:39:09.327Z,51.23
2022-11-29T17:41:36.934Z,49.77
2022-11-29T17:44:04.225Z,50.13
2022-11-29T17:46:36.617Z,47.83
2022-11-29T17:49:10.101Z,57.63
2022-11-29T17:51:54.421Z,55.07
2022-11-29T17:54:22.987Z,51.87
2022-11-29T17:56:50.986Z,57.33
2022-11-29T17:59:18.478Z,52.67
2022-11-29T18:01:49.000Z,50.40
2022-11-29T18:04:16.857Z,54.03
2022-11-29T18:06:49.849Z,58.43
2022-11-29T18:09:18.662Z,53.60
2022-11-29T18:11:49.066Z,55.50
2022-11-29T18:14:20.807Z,45.93
2022-11-29T18:16:48.676Z,51.03
2022-11-29T18:19:20.132Z,45.03
2022-11-29T18:21:49.181Z,47.40
2022-11-29T18:24:16.844Z,44.57
2022-11-29T18:26:44.332Z,48.03
2022-11-29T18:29:11.586Z,45.63
2022-11-29T18:31:41.781Z,44.40
2022-11-29T18:34:10.481Z,41.97
2022-11-29T18:36:40.549Z,49.13
2022-11-29T18:39:10.436Z,46.30
2022-11-29T18:41:38.526Z,46.97
2022-11-29T18:44:08.637Z,47.23
2022-11-29T18:46:38.153Z,48.50
2022-11-29T18:49:08.061Z,60.70
2022-11-29T18:51:37.772Z,53.77
2022-11-29T18:54:06.296Z,47.83
2022-11-29T18:56:35.912Z,47.00
2022-11-29T18:59:06.668Z,46.57
2022-11-29T19:01:38.040Z,44.27
2022-11-29T19:04:05.557Z,43.17
2022-11-29T19:06:39.431Z,46.00
2022-11-29T19:09:12.192Z,45.23
2022-11-29T19:11:39.475Z,45.87
2022-11-29T19:14:11.837Z,44.57
2022-11-29T19:16:43.451Z,47.53
2022-11-29T19:19:11.071Z,47.57
2022-11-29T19:21:40.020Z,46.63
2022-11-29T19:24:13.939Z,46.97
2022-11-29T19:26:44.643Z,46.27
2022-11-29T19:29:15.657Z,43.57
2022-11-29T19:31:43.404Z,41.13
2022-11-29T19:34:11.489Z,43.83
2022-11-29T19:36:44.404Z,46.10
2022-11-29T19:39:14.882Z,49.93
2022-11-29T19:41:44.872Z,50.60
2022-11-29T19:44:12.704Z,42.77
2022-11-29T19:46:46.011Z,45.47
2022-11-29T19:49:13.740Z,42.97
2022-11-29T19:51:43.464Z,46.90
2022-11-29T19:54:12.064Z,44.60
2022-11-29T19:56:39.757Z,42.97
2022-11-29T19:59:08.381Z,43.30
2022-11-29T20:01:40.684Z,46.13
2022-11-29T20:04:10.676Z,50.53
2022-11-29T20:06:38.343Z,46.87
2022-11-29T20:09:06.548Z,50.07
2022-11-29T20:11:33.856Z,52.53
2022-11-29T20:14:02.679Z,50.83
2022-11-29T20:16:31.567Z,49.67
2022-11-29T20:18:59.541Z,52.27
2022-11-29T20:21:29.368Z,49.93
2022-11-29T20:23:58.820Z,52.27
2022-11-29T20:26:27.813Z,49.30
2022-11-29T20:28:55.026Z,50.97
2022-11-29T20:31:23.520Z,51.50
2022-11-29T20:33:53.120Z,49.23
2022-11-29T20:36:54.692Z,55.03
2022-11-29T20:39:39.081Z,45.53
2022-11-29T20:42:18.654Z,48.47
2022-11-29T20:44:51.084Z,52.23
2022-11-29T20:47:21.996Z,55.47
2022-11-29T20:49:49.416Z,49.47
2022-11-29T20:52:38.636Z,50.23
2022-11-29T20:55:06.204Z,50.67
2022-11-29T20:57:33.409Z,54.53
2022-11-29T21:00:00.950Z,46.70
2022-11-29T21:02:28.063Z,52.20
2022-11-29T21:04:55.254Z,51.10
2022-11-29T21:07:22.427Z,64.37
2022-11-29T21:09:49.734Z,52.83
2022-11-29T21:12:17.493Z,57.27
2022-11-29T21:14:45.274Z,56.23
2022-11-29T21:17:13.659Z,49.60
2022-11-29T21:19:41.135Z,55.20
2022-11-29T21:22:08.220Z,48.40
2022-11-29T21:24:41.354Z,50.07
2022-11-29T21:27:14.619Z,48.97
2022-11-29T21:29:42.260Z,51.10
2022-11-29T21:32:21.486Z,45.40
2022-11-29T21:34:49.559Z,48.87
2022-11-29T21:37:20.264Z,46.37
2022-11-29T21:39:49.474Z,48.70
2022-11-29T21:42:16.600Z,53.57
2022-11-29T21:44:43.944Z,53.90
2022-11-29T21:47:11.201Z,71.13
2022-11-29T21:49:39.703Z,68.93
2022-11-29T21:52:07.059Z,68.80
2022-11-29T21:54:34.222Z,64.03
2022-11-29T21:57:02.125Z,58.87
2022-11-29T21:59:29.444Z,51.10
2022-11-29T22:01:56.784Z,50.00
2022-11-29T22:04:25.273Z,50.00
2022-11-29T22:06:53.486Z,48.97
2022-11-29T22:09:21.684Z,53.47
2022-11-29T22:11:48.878Z,50.10
2022-11-29T22:14:19.335Z,51.90
2022-11-29T22:16:54.147Z,47.70
2022-11-29T22:19:22.875Z,48.53
2022-11-29T22:21:52.489Z,52.83
2022-11-29T22:24:22.475Z,60.60
2022-11-29T22:26:51.374Z,78.70
2022-11-29T22:29:19.889Z,62.73
2022-11-29T22:31:50.163Z,54.00
2022-11-29T22:34:17.563Z,53.63
2022-11-29T22:36:45.119Z,56.43
2022-11-29T22:39:14.624Z,53.43
2022-11-29T22:41:42.486Z,51.77
2022-11-29T22:44:10.284Z,50.43
2022-11-29T22:46:41.090Z,55.80
2022-11-29T22:49:09.029Z,49.93
2022-11-29T22:51:37.839Z,51.07
2022-11-29T22:54:07.916Z,51.27
2022-11-29T22:56:37.993Z,48.20
2022-11-29T22:59:06.284Z,47.90
2022-11-29T23:01:36.844Z,46.70
2022-11-29T23:04:07.437Z,51.00
2022-11-29T23:06:37.065Z,46.53
2022-11-29T23:09:24.299Z,44.00
2022-11-29T23:11:54.451Z,46.43
2022-11-29T23:14:23.048Z,45.57
2022-11-29T23:16:50.595Z,44.43
2022-11-29T23:19:18.641Z,43.33
2022-11-29T23:21:46.622Z,46.03
2022-11-29T23:24:15.464Z,44.47
2022-11-29T23:26:48.228Z,42.77
2022-11-29T23:29:17.999Z,45.87
2022-11-29T23:31:46.858Z,43.20
2022-11-29T23:34:14.815Z,43.47
2022-11-29T23:36:43.347Z,43.30
2022-11-29T23:39:12.978Z,45.50
2022-11-29T23:41:40.235Z,44.63
2022-11-29T23:44:09.655Z,42.40
2022-11-29T23:46:37.475Z,42.03
2022-11-29T23:49:04.721Z,42.40
2022-11-29T23:51:31.853Z,39.63
2022-11-29T23:53:59.084Z,44.57
2022-11-29T23:56:26.260Z,44.10
2022-11-29T23:58:53.548Z,42.23
